sensor_id;sensor_type;location;lat;lon;timestamp;P1;durP1;ratioP1;P2;durP2;ratioP2
28774;SDS011;15926;51.348;6.596;2023-05-16T00:00:30;2.63;;;2.28;;
28774;SDS011;15926;51.348;6.596;2023-05-16T00:02:59;3.75;;;2.05;;
28774;SDS011;15926;51.348;6.596;2023-05-16T00:05:25;2.42;;;1.52;;
28774;SDS011;15926;51.348;6.596;2023-05-16T00:07:51;2.88;;;1.90;;
28774;SDS011;15926;51.348;6.596;2023-05-16T00:10:17;3.95;;;1.70;;
28774;SDS011;15926;51.348;6.596;2023-05-16T00:12:43;3.70;;;2.00;;
28774;SDS011;15926;51.348;6.596;2023-05-16T00:15:10;6.65;;;1.88;;
28774;SDS011;15926;51.348;6.596;2023-05-16T00:17:38;2.53;;;1.60;;
28774;SDS011;15926;51.348;6.596;2023-05-16T00:20:05;3.15;;;1.73;;
28774;SDS011;15926;51.348;6.596;2023-05-16T00:22:35;10.13;;;2.10;;
28774;SDS011;15926;51.348;6.596;2023-05-16T00:25:01;5.18;;;1.65;;
28774;SDS011;15926;51.348;6.596;2023-05-16T00:27:30;2.30;;;1.70;;
28774;SDS011;15926;51.348;6.596;2023-05-16T00:29:56;3.80;;;1.75;;
28774;SDS011;15926;51.348;6.596;2023-05-16T00:32:22;4.60;;;1.50;;
28774;SDS011;15926;51.348;6.596;2023-05-16T00:34:48;6.30;;;2.03;;
28774;SDS011;15926;51.348;6.596;2023-05-16T00:37:17;4.32;;;1.73;;
28774;SDS011;15926;51.348;6.596;2023-05-16T00:39:43;7.25;;;1.80;;
28774;SDS011;15926;51.348;6.596;2023-05-16T00:42:08;2.80;;;1.60;;
28774;SDS011;15926;51.348;6.596;2023-05-16T00:44:34;8.80;;;1.80;;
28774;SDS011;15926;51.348;6.596;2023-05-16T00:47:00;10.85;;;1.90;;
28774;SDS011;15926;51.348;6.596;2023-05-16T00:49:28;4.88;;;2.00;;
28774;SDS011;15926;51.348;6.596;2023-05-16T00:51:54;5.53;;;2.10;;
28774;SDS011;15926;51.348;6.596;2023-05-16T00:54:21;4.38;;;2.08;;
28774;SDS011;15926;51.348;6.596;2023-05-16T00:56:47;4.18;;;2.40;;
28774;SDS011;15926;51.348;6.596;2023-05-16T00:59:13;6.03;;;1.80;;
28774;SDS011;15926;51.348;6.596;2023-05-16T01:01:39;5.00;;;2.30;;
28774;SDS011;15926;51.348;6.596;2023-05-16T01:04:06;5.88;;;2.05;;
28774;SDS011;15926;51.348;6.596;2023-05-16T01:06:32;5.78;;;2.00;;
28774;SDS011;15926;51.348;6.596;2023-05-16T01:08:58;4.85;;;2.30;;
28774;SDS011;15926;51.348;6.596;2023-05-16T01:19:19;9.80;;;2.38;;
28774;SDS011;15926;51.348;6.596;2023-05-16T01:22:04;6.97;;;2.13;;
28774;SDS011;15926;51.348;6.596;2023-05-16T01:24:42;8.73;;;1.80;;
28774;SDS011;15926;51.348;6.596;2023-05-16T01:27:08;4.40;;;1.80;;
28774;SDS011;15926;51.348;6.596;2023-05-16T01:29:35;5.32;;;1.90;;
28774;SDS011;15926;51.348;6.596;2023-05-16T01:32:01;13.60;;;2.05;;
28774;SDS011;15926;51.348;6.596;2023-05-16T01:34:27;7.13;;;2.28;;
28774;SDS011;15926;51.348;6.596;2023-05-16T01:39:28;8.27;;;2.03;;
28774;SDS011;15926;51.348;6.596;2023-05-16T01:46:53;5.78;;;1.88;;
28774;SDS011;15926;51.348;6.596;2023-05-16T01:49:29;8.68;;;1.88;;
28774;SDS011;15926;51.348;6.596;2023-05-16T01:51:59;7.80;;;1.83;;
28774;SDS011;15926;51.348;6.596;2023-05-16T01:54:25;9.73;;;1.75;;
28774;SDS011;15926;51.348;6.596;2023-05-16T01:56:55;11.98;;;2.20;;
28774;SDS011;15926;51.348;6.596;2023-05-16T01:59:22;13.73;;;2.45;;
28774;SDS011;15926;51.348;6.596;2023-05-16T02:01:48;12.80;;;3.10;;
28774;SDS011;15926;51.348;6.596;2023-05-16T02:04:17;8.52;;;2.58;;
28774;SDS011;15926;51.348;6.596;2023-05-16T02:06:46;10.55;;;2.33;;
28774;SDS011;15926;51.348;6.596;2023-05-16T02:09:12;13.32;;;3.78;;
28774;SDS011;15926;51.348;6.596;2023-05-16T02:11:38;8.73;;;2.30;;
28774;SDS011;15926;51.348;6.596;2023-05-16T02:14:04;11.23;;;2.35;;
28774;SDS011;15926;51.348;6.596;2023-05-16T02:16:30;13.13;;;2.50;;
28774;SDS011;15926;51.348;6.596;2023-05-16T02:18:56;7.63;;;2.13;;
28774;SDS011;15926;51.348;6.596;2023-05-16T02:21:22;13.15;;;3.15;;
28774;SDS011;15926;51.348;6.596;2023-05-16T02:23:49;12.48;;;2.58;;
28774;SDS011;15926;51.348;6.596;2023-05-16T02:26:15;8.02;;;2.30;;
28774;SDS011;15926;51.348;6.596;2023-05-16T02:28:41;8.57;;;2.60;;
28774;SDS011;15926;51.348;6.596;2023-05-16T02:31:07;5.95;;;2.17;;
28774;SDS011;15926;51.348;6.596;2023-05-16T02:33:33;9.48;;;2.55;;
28774;SDS011;15926;51.348;6.596;2023-05-16T02:35:59;12.80;;;2.50;;
28774;SDS011;15926;51.348;6.596;2023-05-16T02:38:25;11.50;;;2.83;;
28774;SDS011;15926;51.348;6.596;2023-05-16T02:40:51;12.75;;;2.83;;
28774;SDS011;15926;51.348;6.596;2023-05-16T02:43:17;11.90;;;2.72;;
28774;SDS011;15926;51.348;6.596;2023-05-16T02:45:43;16.33;;;4.05;;
28774;SDS011;15926;51.348;6.596;2023-05-16T02:48:09;10.95;;;2.47;;
28774;SDS011;15926;51.348;6.596;2023-05-16T02:50:36;12.02;;;3.13;;
28774;SDS011;15926;51.348;6.596;2023-05-16T02:53:04;8.27;;;2.28;;
28774;SDS011;15926;51.348;6.596;2023-05-16T02:55:30;12.20;;;2.88;;
28774;SDS011;15926;51.348;6.596;2023-05-16T02:57:56;11.38;;;2.72;;
28774;SDS011;15926;51.348;6.596;2023-05-16T03:00:22;15.98;;;2.55;;
28774;SDS011;15926;51.348;6.596;2023-05-16T03:02:48;15.50;;;2.80;;
28774;SDS011;15926;51.348;6.596;2023-05-16T03:05:17;12.70;;;2.60;;
28774;SDS011;15926;51.348;6.596;2023-05-16T03:07:43;9.63;;;2.30;;
28774;SDS011;15926;51.348;6.596;2023-05-16T03:10:09;11.77;;;1.70;;
28774;SDS011;15926;51.348;6.596;2023-05-16T03:12:36;8.05;;;2.13;;
28774;SDS011;15926;51.348;6.596;2023-05-16T03:15:02;12.32;;;2.40;;
28774;SDS011;15926;51.348;6.596;2023-05-16T03:17:28;9.85;;;2.72;;
28774;SDS011;15926;51.348;6.596;2023-05-16T03:19:54;12.18;;;2.40;;
28774;SDS011;15926;51.348;6.596;2023-05-16T03:22:20;11.60;;;2.45;;
28774;SDS011;15926;51.348;6.596;2023-05-16T03:24:46;14.13;;;3.13;;
28774;SDS011;15926;51.348;6.596;2023-05-16T03:27:12;13.07;;;2.33;;
28774;SDS011;15926;51.348;6.596;2023-05-16T03:29:38;16.70;;;2.08;;
28774;SDS011;15926;51.348;6.596;2023-05-16T03:32:04;11.25;;;2.47;;
28774;SDS011;15926;51.348;6.596;2023-05-16T03:34:30;13.55;;;2.05;;
28774;SDS011;15926;51.348;6.596;2023-05-16T03:36:56;5.30;;;2.10;;
28774;SDS011;15926;51.348;6.596;2023-05-16T03:39:22;11.73;;;2.20;;
28774;SDS011;15926;51.348;6.596;2023-05-16T03:41:48;10.40;;;2.20;;
28774;SDS011;15926;51.348;6.596;2023-05-16T03:44:15;12.15;;;2.42;;
28774;SDS011;15926;51.348;6.596;2023-05-16T03:46:41;11.68;;;2.55;;
28774;SDS011;15926;51.348;6.596;2023-05-16T03:49:07;7.60;;;2.42;;
28774;SDS011;15926;51.348;6.596;2023-05-16T03:51:33;9.48;;;1.83;;
28774;SDS011;15926;51.348;6.596;2023-05-16T03:53:59;11.02;;;2.35;;
28774;SDS011;15926;51.348;6.596;2023-05-16T03:56:25;13.38;;;2.13;;
28774;SDS011;15926;51.348;6.596;2023-05-16T03:58:51;10.95;;;1.85;;
28774;SDS011;15926;51.348;6.596;2023-05-16T04:01:17;7.95;;;2.10;;
28774;SDS011;15926;51.348;6.596;2023-05-16T04:03:43;7.45;;;2.03;;
28774;SDS011;15926;51.348;6.596;2023-05-16T04:06:09;10.50;;;2.10;;
28774;SDS011;15926;51.348;6.596;2023-05-16T04:08:35;14.40;;;2.20;;
28774;SDS011;15926;51.348;6.596;2023-05-16T04:11:03;8.07;;;1.95;;
28774;SDS011;15926;51.348;6.596;2023-05-16T04:13:29;5.50;;;1.52;;
28774;SDS011;15926;51.348;6.596;2023-05-16T04:15:55;9.75;;;1.77;;
28774;SDS011;15926;51.348;6.596;2023-05-16T04:18:21;11.18;;;1.92;;
28774;SDS011;15926;51.348;6.596;2023-05-16T04:20:47;11.38;;;1.65;;
28774;SDS011;15926;51.348;6.596;2023-05-16T04:23:16;11.25;;;2.45;;
28774;SDS011;15926;51.348;6.596;2023-05-16T04:25:42;6.47;;;1.70;;
28774;SDS011;15926;51.348;6.596;2023-05-16T04:28:08;7.43;;;1.67;;
28774;SDS011;15926;51.348;6.596;2023-05-16T04:30:35;9.95;;;2.40;;
28774;SDS011;15926;51.348;6.596;2023-05-16T04:33:02;14.88;;;1.63;;
28774;SDS011;15926;51.348;6.596;2023-05-16T04:35:28;10.45;;;1.90;;
28774;SDS011;15926;51.348;6.596;2023-05-16T04:37:55;15.00;;;1.70;;
28774;SDS011;15926;51.348;6.596;2023-05-16T04:40:21;11.85;;;2.28;;
28774;SDS011;15926;51.348;6.596;2023-05-16T04:42:48;11.13;;;1.80;;
28774;SDS011;15926;51.348;6.596;2023-05-16T04:45:14;9.68;;;1.60;;
28774;SDS011;15926;51.348;6.596;2023-05-16T04:47:40;10.32;;;1.30;;
28774;SDS011;15926;51.348;6.596;2023-05-16T04:50:07;7.05;;;1.70;;
28774;SDS011;15926;51.348;6.596;2023-05-16T04:52:33;10.15;;;1.65;;
28774;SDS011;15926;51.348;6.596;2023-05-16T04:54:59;10.27;;;2.00;;
28774;SDS011;15926;51.348;6.596;2023-05-16T04:57:25;13.82;;;2.50;;
28774;SDS011;15926;51.348;6.596;2023-05-16T04:59:52;3.22;;;1.35;;
28774;SDS011;15926;51.348;6.596;2023-05-16T05:02:18;11.52;;;1.42;;
28774;SDS011;15926;51.348;6.596;2023-05-16T05:04:44;8.10;;;1.45;;
28774;SDS011;15926;51.348;6.596;2023-05-16T05:07:10;10.88;;;1.90;;
28774;SDS011;15926;51.348;6.596;2023-05-16T05:09:38;7.75;;;1.45;;
28774;SDS011;15926;51.348;6.596;2023-05-16T05:12:04;10.23;;;1.92;;
28774;SDS011;15926;51.348;6.596;2023-05-16T05:14:31;11.43;;;1.58;;
28774;SDS011;15926;51.348;6.596;2023-05-16T05:16:57;13.60;;;1.70;;
28774;SDS011;15926;51.348;6.596;2023-05-16T05:19:23;12.35;;;1.80;;
28774;SDS011;15926;51.348;6.596;2023-05-16T05:21:49;8.68;;;1.50;;
28774;SDS011;15926;51.348;6.596;2023-05-16T05:24:15;8.98;;;1.77;;
28774;SDS011;15926;51.348;6.596;2023-05-16T05:26:41;7.70;;;2.13;;
28774;SDS011;15926;51.348;6.596;2023-05-16T05:29:07;13.80;;;1.98;;
28774;SDS011;15926;51.348;6.596;2023-05-16T05:31:33;15.85;;;1.67;;
28774;SDS011;15926;51.348;6.596;2023-05-16T05:33:59;7.80;;;1.35;;
28774;SDS011;15926;51.348;6.596;2023-05-16T05:36:25;8.95;;;1.20;;
28774;SDS011;15926;51.348;6.596;2023-05-16T05:38:51;10.63;;;1.70;;
28774;SDS011;15926;51.348;6.596;2023-05-16T05:41:20;12.63;;;1.67;;
28774;SDS011;15926;51.348;6.596;2023-05-16T05:43:46;10.77;;;1.52;;
28774;SDS011;15926;51.348;6.596;2023-05-16T05:46:12;11.98;;;1.42;;
28774;SDS011;15926;51.348;6.596;2023-05-16T05:48:38;8.00;;;1.70;;
28774;SDS011;15926;51.348;6.596;2023-05-16T05:51:04;9.10;;;2.25;;
28774;SDS011;15926;51.348;6.596;2023-05-16T05:53:30;8.07;;;1.77;;
28774;SDS011;15926;51.348;6.596;2023-05-16T05:55:56;8.63;;;1.80;;
28774;SDS011;15926;51.348;6.596;2023-05-16T05:58:22;9.82;;;1.65;;
28774;SDS011;15926;51.348;6.596;2023-05-16T06:00:48;11.93;;;1.88;;
28774;SDS011;15926;51.348;6.596;2023-05-16T06:03:14;10.48;;;1.73;;
28774;SDS011;15926;51.348;6.596;2023-05-16T06:05:41;14.27;;;2.05;;
28774;SDS011;15926;51.348;6.596;2023-05-16T06:08:07;9.35;;;1.70;;
28774;SDS011;15926;51.348;6.596;2023-05-16T06:10:33;9.45;;;1.73;;
28774;SDS011;15926;51.348;6.596;2023-05-16T06:12:59;8.85;;;1.60;;
28774;SDS011;15926;51.348;6.596;2023-05-16T06:15:25;6.93;;;1.95;;
28774;SDS011;15926;51.348;6.596;2023-05-16T06:17:51;7.68;;;1.20;;
28774;SDS011;15926;51.348;6.596;2023-05-16T06:20:17;9.77;;;1.77;;
28774;SDS011;15926;51.348;6.596;2023-05-16T06:22:43;9.52;;;1.75;;
28774;SDS011;15926;51.348;6.596;2023-05-16T06:25:09;10.60;;;2.03;;
28774;SDS011;15926;51.348;6.596;2023-05-16T06:27:37;9.98;;;1.75;;
28774;SDS011;15926;51.348;6.596;2023-05-16T06:30:03;11.68;;;1.90;;
28774;SDS011;15926;51.348;6.596;2023-05-16T06:32:29;11.65;;;1.88;;
28774;SDS011;15926;51.348;6.596;2023-05-16T06:34:55;7.75;;;1.40;;
28774;SDS011;15926;51.348;6.596;2023-05-16T06:37:21;5.43;;;1.02;;
28774;SDS011;15926;51.348;6.596;2023-05-16T06:39:47;9.48;;;1.52;;
28774;SDS011;15926;51.348;6.596;2023-05-16T06:42:13;7.53;;;1.65;;
28774;SDS011;15926;51.348;6.596;2023-05-16T06:44:39;12.75;;;2.03;;
28774;SDS011;15926;51.348;6.596;2023-05-16T06:47:05;8.82;;;1.65;;
28774;SDS011;15926;51.348;6.596;2023-05-16T06:49:32;10.20;;;1.33;;
28774;SDS011;15926;51.348;6.596;2023-05-16T06:51:58;9.65;;;1.60;;
28774;SDS011;15926;51.348;6.596;2023-05-16T06:54:24;10.77;;;1.60;;
28774;SDS011;15926;51.348;6.596;2023-05-16T06:56:50;10.30;;;1.77;;
28774;SDS011;15926;51.348;6.596;2023-05-16T06:59:16;8.07;;;1.67;;
28774;SDS011;15926;51.348;6.596;2023-05-16T07:01:42;9.38;;;1.90;;
28774;SDS011;15926;51.348;6.596;2023-05-16T07:04:08;5.40;;;1.80;;
28774;SDS011;15926;51.348;6.596;2023-05-16T07:06:34;8.35;;;1.10;;
28774;SDS011;15926;51.348;6.596;2023-05-16T07:09:00;11.32;;;1.80;;
28774;SDS011;15926;51.348;6.596;2023-05-16T07:11:29;5.53;;;1.10;;
28774;SDS011;15926;51.348;6.596;2023-05-16T07:13:55;7.78;;;1.30;;
28774;SDS011;15926;51.348;6.596;2023-05-16T07:16:21;6.70;;;1.80;;
28774;SDS011;15926;51.348;6.596;2023-05-16T07:18:52;6.63;;;1.10;;
28774;SDS011;15926;51.348;6.596;2023-05-16T07:21:21;6.10;;;1.35;;
28774;SDS011;15926;51.348;6.596;2023-05-16T07:23:47;6.72;;;1.50;;
28774;SDS011;15926;51.348;6.596;2023-05-16T07:26:13;4.22;;;1.17;;
28774;SDS011;15926;51.348;6.596;2023-05-16T07:28:39;8.70;;;1.50;;
28774;SDS011;15926;51.348;6.596;2023-05-16T07:31:05;11.52;;;1.45;;
28774;SDS011;15926;51.348;6.596;2023-05-16T07:33:32;7.10;;;1.33;;
28774;SDS011;15926;51.348;6.596;2023-05-16T07:35:58;6.55;;;1.42;;
28774;SDS011;15926;51.348;6.596;2023-05-16T07:38:25;5.43;;;1.20;;
28774;SDS011;15926;51.348;6.596;2023-05-16T07:40:51;7.63;;;1.10;;
28774;SDS011;15926;51.348;6.596;2023-05-16T07:43:17;8.25;;;1.38;;
28774;SDS011;15926;51.348;6.596;2023-05-16T07:45:43;3.17;;;0.80;;
28774;SDS011;15926;51.348;6.596;2023-05-16T07:48:09;8.48;;;1.92;;
28774;SDS011;15926;51.348;6.596;2023-05-16T07:50:35;3.67;;;1.13;;
28774;SDS011;15926;51.348;6.596;2023-05-16T07:53:01;3.22;;;1.45;;
28774;SDS011;15926;51.348;6.596;2023-05-16T07:55:27;5.57;;;1.00;;
28774;SDS011;15926;51.348;6.596;2023-05-16T07:57:53;5.80;;;1.35;;
28774;SDS011;15926;51.348;6.596;2023-05-16T08:00:19;3.05;;;0.90;;
28774;SDS011;15926;51.348;6.596;2023-05-16T08:02:51;3.97;;;0.93;;
28774;SDS011;15926;51.348;6.596;2023-05-16T08:05:17;5.00;;;0.98;;
28774;SDS011;15926;51.348;6.596;2023-05-16T08:07:43;6.55;;;1.10;;
28774;SDS011;15926;51.348;6.596;2023-05-16T08:10:10;7.47;;;1.00;;
28774;SDS011;15926;51.348;6.596;2023-05-16T08:12:36;3.55;;;0.88;;
28774;SDS011;15926;51.348;6.596;2023-05-16T08:15:02;4.50;;;1.45;;
28774;SDS011;15926;51.348;6.596;2023-05-16T08:17:29;6.03;;;1.35;;
28774;SDS011;15926;51.348;6.596;2023-05-16T08:19:55;6.90;;;0.88;;
28774;SDS011;15926;51.348;6.596;2023-05-16T08:22:23;6.07;;;1.30;;
28774;SDS011;15926;51.348;6.596;2023-05-16T08:24:49;7.05;;;0.93;;
28774;SDS011;15926;51.348;6.596;2023-05-16T08:27:15;9.27;;;2.08;;
28774;SDS011;15926;51.348;6.596;2023-05-16T08:29:43;8.98;;;2.13;;
28774;SDS011;15926;51.348;6.596;2023-05-16T08:32:09;2.47;;;0.70;;
28774;SDS011;15926;51.348;6.596;2023-05-16T08:34:36;5.15;;;1.15;;
28774;SDS011;15926;51.348;6.596;2023-05-16T08:37:02;4.03;;;0.82;;
28774;SDS011;15926;51.348;6.596;2023-05-16T08:39:30;4.70;;;1.00;;
28774;SDS011;15926;51.348;6.596;2023-05-16T08:41:56;4.13;;;1.27;;
28774;SDS011;15926;51.348;6.596;2023-05-16T08:44:23;5.18;;;1.40;;
28774;SDS011;15926;51.348;6.596;2023-05-16T08:46:50;6.43;;;0.90;;
28774;SDS011;15926;51.348;6.596;2023-05-16T08:49:19;1.98;;;0.82;;
28774;SDS011;15926;51.348;6.596;2023-05-16T08:51:46;4.25;;;0.88;;
28774;SDS011;15926;51.348;6.596;2023-05-16T08:54:12;3.47;;;1.20;;
28774;SDS011;15926;51.348;6.596;2023-05-16T08:56:48;2.90;;;0.80;;
28774;SDS011;15926;51.348;6.596;2023-05-16T08:59:14;3.33;;;0.98;;
28774;SDS011;15926;51.348;6.596;2023-05-16T09:01:40;3.28;;;1.20;;
28774;SDS011;15926;51.348;6.596;2023-05-16T09:04:07;5.18;;;1.02;;
28774;SDS011;15926;51.348;6.596;2023-05-16T09:06:34;3.38;;;0.95;;
28774;SDS011;15926;51.348;6.596;2023-05-16T09:09:00;6.18;;;0.90;;
28774;SDS011;15926;51.348;6.596;2023-05-16T09:11:27;3.58;;;1.20;;
28774;SDS011;15926;51.348;6.596;2023-05-16T09:13:53;4.10;;;0.80;;
28774;SDS011;15926;51.348;6.596;2023-05-16T09:16:19;1.48;;;0.60;;
28774;SDS011;15926;51.348;6.596;2023-05-16T09:18:55;7.43;;;1.20;;
28774;SDS011;15926;51.348;6.596;2023-05-16T09:21:28;5.03;;;0.98;;
28774;SDS011;15926;51.348;6.596;2023-05-16T09:23:56;11.35;;;1.58;;
28774;SDS011;15926;51.348;6.596;2023-05-16T09:26:22;8.65;;;0.90;;
28774;SDS011;15926;51.348;6.596;2023-05-16T09:28:52;4.35;;;1.48;;
28774;SDS011;15926;51.348;6.596;2023-05-16T09:33:46;6.93;;;1.33;;
28774;SDS011;15926;51.348;6.596;2023-05-16T09:36:14;4.90;;;1.40;;
28774;SDS011;15926;51.348;6.596;2023-05-16T09:38:43;6.05;;;1.08;;
28774;SDS011;15926;51.348;6.596;2023-05-16T09:41:09;6.88;;;1.85;;
28774;SDS011;15926;51.348;6.596;2023-05-16T09:43:39;6.10;;;1.20;;
28774;SDS011;15926;51.348;6.596;2023-05-16T09:46:05;2.60;;;0.93;;
28774;SDS011;15926;51.348;6.596;2023-05-16T09:48:31;2.80;;;1.08;;
28774;SDS011;15926;51.348;6.596;2023-05-16T09:50:57;5.63;;;1.10;;
28774;SDS011;15926;51.348;6.596;2023-05-16T09:53:29;7.70;;;1.48;;
28774;SDS011;15926;51.348;6.596;2023-05-16T09:56:03;3.92;;;1.38;;
28774;SDS011;15926;51.348;6.596;2023-05-16T09:58:30;6.80;;;1.10;;
28774;SDS011;15926;51.348;6.596;2023-05-16T10:00:59;4.97;;;1.00;;
28774;SDS011;15926;51.348;6.596;2023-05-16T10:03:25;5.65;;;1.10;;
28774;SDS011;15926;51.348;6.596;2023-05-16T10:05:52;2.55;;;1.13;;
28774;SDS011;15926;51.348;6.596;2023-05-16T10:08:21;3.95;;;1.55;;
28774;SDS011;15926;51.348;6.596;2023-05-16T10:10:51;6.65;;;1.35;;
28774;SDS011;15926;51.348;6.596;2023-05-16T10:13:21;4.47;;;1.20;;
28774;SDS011;15926;51.348;6.596;2023-05-16T10:15:49;3.90;;;0.90;;
28774;SDS011;15926;51.348;6.596;2023-05-16T10:18:20;3.15;;;0.98;;
28774;SDS011;15926;51.348;6.596;2023-05-16T10:20:46;3.38;;;1.25;;
28774;SDS011;15926;51.348;6.596;2023-05-16T10:23:17;2.33;;;0.70;;
28774;SDS011;15926;51.348;6.596;2023-05-16T10:25:47;2.20;;;0.73;;
28774;SDS011;15926;51.348;6.596;2023-05-16T10:28:16;4.22;;;0.95;;
28774;SDS011;15926;51.348;6.596;2023-05-16T10:30:43;5.43;;;1.02;;
28774;SDS011;15926;51.348;6.596;2023-05-16T10:33:13;3.20;;;0.68;;
28774;SDS011;15926;51.348;6.596;2023-05-16T10:35:39;4.82;;;0.90;;
28774;SDS011;15926;51.348;6.596;2023-05-16T10:38:06;6.07;;;0.73;;
28774;SDS011;15926;51.348;6.596;2023-05-16T10:40:34;2.47;;;0.80;;
28774;SDS011;15926;51.348;6.596;2023-05-16T10:43:01;1.95;;;0.75;;
28774;SDS011;15926;51.348;6.596;2023-05-16T10:45:27;3.42;;;0.65;;
28774;SDS011;15926;51.348;6.596;2023-05-16T10:47:58;1.52;;;0.52;;
28774;SDS011;15926;51.348;6.596;2023-05-16T10:50:31;5.45;;;1.33;;
28774;SDS011;15926;51.348;6.596;2023-05-16T10:53:17;2.38;;;0.60;;
28774;SDS011;15926;51.348;6.596;2023-05-16T11:11:46;7.90;;;1.08;;
28774;SDS011;15926;51.348;6.596;2023-05-16T11:14:25;1.55;;;0.60;;
28774;SDS011;15926;51.348;6.596;2023-05-16T11:17:00;6.20;;;1.42;;
28774;SDS011;15926;51.348;6.596;2023-05-16T11:19:38;3.15;;;0.68;;
28774;SDS011;15926;51.348;6.596;2023-05-16T11:24:47;1.92;;;0.60;;
28774;SDS011;15926;51.348;6.596;2023-05-16T11:27:17;3.70;;;0.68;;
28774;SDS011;15926;51.348;6.596;2023-05-16T11:29:45;3.38;;;0.85;;
28774;SDS011;15926;51.348;6.596;2023-05-16T11:32:20;1.55;;;0.52;;
28774;SDS011;15926;51.348;6.596;2023-05-16T11:34:47;1.98;;;0.60;;
28774;SDS011;15926;51.348;6.596;2023-05-16T11:37:13;2.78;;;0.70;;
28774;SDS011;15926;51.348;6.596;2023-05-16T11:39:40;2.15;;;0.80;;
28774;SDS011;15926;51.348;6.596;2023-05-16T11:42:06;1.17;;;0.50;;
28774;SDS011;15926;51.348;6.596;2023-05-16T11:44:32;2.10;;;0.40;;
28774;SDS011;15926;51.348;6.596;2023-05-16T11:46:58;5.70;;;1.25;;
28774;SDS011;15926;51.348;6.596;2023-05-16T11:49:26;3.08;;;0.93;;
28774;SDS011;15926;51.348;6.596;2023-05-16T11:51:53;0.70;;;0.50;;
28774;SDS011;15926;51.348;6.596;2023-05-16T11:54:20;6.15;;;0.95;;
28774;SDS011;15926;51.348;6.596;2023-05-16T11:56:46;2.53;;;0.70;;
28774;SDS011;15926;51.348;6.596;2023-05-16T11:59:13;3.75;;;0.60;;
28774;SDS011;15926;51.348;6.596;2023-05-16T12:01:39;3.08;;;0.65;;
28774;SDS011;15926;51.348;6.596;2023-05-16T12:04:06;1.85;;;0.90;;
28774;SDS011;15926;51.348;6.596;2023-05-16T12:06:33;1.30;;;0.50;;
28774;SDS011;15926;51.348;6.596;2023-05-16T12:08:59;1.20;;;0.57;;
28774;SDS011;15926;51.348;6.596;2023-05-16T12:11:34;0.95;;;0.55;;
28774;SDS011;15926;51.348;6.596;2023-05-16T12:14:01;1.25;;;0.57;;
28774;SDS011;15926;51.348;6.596;2023-05-16T12:16:27;2.28;;;0.60;;
28774;SDS011;15926;51.348;6.596;2023-05-16T12:18:56;1.20;;;0.50;;
28774;SDS011;15926;51.348;6.596;2023-05-16T12:21:22;2.45;;;0.50;;
28774;SDS011;15926;51.348;6.596;2023-05-16T12:23:48;3.10;;;0.60;;
28774;SDS011;15926;51.348;6.596;2023-05-16T12:26:15;1.23;;;0.68;;
28774;SDS011;15926;51.348;6.596;2023-05-16T12:28:52;0.95;;;0.32;;
28774;SDS011;15926;51.348;6.596;2023-05-16T12:31:20;1.40;;;0.60;;
28774;SDS011;15926;51.348;6.596;2023-05-16T12:33:46;3.45;;;0.88;;
28774;SDS011;15926;51.348;6.596;2023-05-16T12:36:12;2.40;;;0.55;;
28774;SDS011;15926;51.348;6.596;2023-05-16T12:38:39;2.45;;;0.40;;
28774;SDS011;15926;51.348;6.596;2023-05-16T12:41:06;1.23;;;0.40;;
28774;SDS011;15926;51.348;6.596;2023-05-16T12:43:32;1.17;;;0.60;;
28774;SDS011;15926;51.348;6.596;2023-05-16T12:45:58;1.83;;;0.55;;
28774;SDS011;15926;51.348;6.596;2023-05-16T12:48:31;1.85;;;0.35;;
28774;SDS011;15926;51.348;6.596;2023-05-16T12:51:08;1.80;;;0.50;;
28774;SDS011;15926;51.348;6.596;2023-05-16T12:53:40;1.65;;;0.70;;
28774;SDS011;15926;51.348;6.596;2023-05-16T12:56:06;1.15;;;0.40;;
28774;SDS011;15926;51.348;6.596;2023-05-16T12:58:32;1.80;;;0.65;;
28774;SDS011;15926;51.348;6.596;2023-05-16T13:00:58;1.35;;;0.80;;
28774;SDS011;15926;51.348;6.596;2023-05-16T13:03:24;1.13;;;0.40;;
28774;SDS011;15926;51.348;6.596;2023-05-16T13:05:50;1.40;;;0.50;;
28774;SDS011;15926;51.348;6.596;2023-05-16T13:08:16;1.88;;;0.60;;
28774;SDS011;15926;51.348;6.596;2023-05-16T13:10:42;1.13;;;0.60;;
28774;SDS011;15926;51.348;6.596;2023-05-16T13:13:08;2.60;;;1.08;;
28774;SDS011;15926;51.348;6.596;2023-05-16T13:15:35;2.17;;;0.75;;
28774;SDS011;15926;51.348;6.596;2023-05-16T13:18:01;2.72;;;0.40;;
28774;SDS011;15926;51.348;6.596;2023-05-16T13:20:27;3.38;;;0.63;;
28774;SDS011;15926;51.348;6.596;2023-05-16T13:22:53;2.53;;;1.20;;
28774;SDS011;15926;51.348;6.596;2023-05-16T13:25:20;3.08;;;0.90;;
28774;SDS011;15926;51.348;6.596;2023-05-16T13:27:46;1.38;;;0.70;;
28774;SDS011;15926;51.348;6.596;2023-05-16T13:30:13;2.42;;;0.68;;
28774;SDS011;15926;51.348;6.596;2023-05-16T13:32:40;5.60;;;0.90;;
28774;SDS011;15926;51.348;6.596;2023-05-16T13:35:06;2.75;;;0.75;;
28774;SDS011;15926;51.348;6.596;2023-05-16T13:37:33;0.82;;;0.73;;
28774;SDS011;15926;51.348;6.596;2023-05-16T13:39:59;2.47;;;0.80;;
28774;SDS011;15926;51.348;6.596;2023-05-16T13:42:26;1.98;;;0.57;;
28774;SDS011;15926;51.348;6.596;2023-05-16T13:44:52;2.05;;;1.02;;
28774;SDS011;15926;51.348;6.596;2023-05-16T13:47:18;2.58;;;0.80;;
28774;SDS011;15926;51.348;6.596;2023-05-16T13:49:46;1.10;;;0.60;;
28774;SDS011;15926;51.348;6.596;2023-05-16T13:52:12;1.30;;;0.63;;
28774;SDS011;15926;51.348;6.596;2023-05-16T13:57:08;2.90;;;0.63;;
28774;SDS011;15926;51.348;6.596;2023-05-16T13:59:34;2.95;;;1.02;;
28774;SDS011;15926;51.348;6.596;2023-05-16T14:02:00;3.05;;;0.95;;
28774;SDS011;15926;51.348;6.596;2023-05-16T14:04:26;1.77;;;0.75;;
28774;SDS011;15926;51.348;6.596;2023-05-16T14:06:52;3.60;;;0.95;;
28774;SDS011;15926;51.348;6.596;2023-05-16T14:09:19;2.25;;;1.15;;
28774;SDS011;15926;51.348;6.596;2023-05-16T14:11:45;1.55;;;0.90;;
28774;SDS011;15926;51.348;6.596;2023-05-16T14:14:11;2.38;;;0.70;;
28774;SDS011;15926;51.348;6.596;2023-05-16T14:16:37;2.88;;;0.80;;
28774;SDS011;15926;51.348;6.596;2023-05-16T14:19:08;1.98;;;0.80;;
28774;SDS011;15926;51.348;6.596;2023-05-16T14:21:34;3.88;;;0.93;;
28774;SDS011;15926;51.348;6.596;2023-05-16T14:24:00;2.80;;;0.80;;
28774;SDS011;15926;51.348;6.596;2023-05-16T14:26:26;3.85;;;0.90;;
28774;SDS011;15926;51.348;6.596;2023-05-16T14:28:53;2.38;;;1.20;;
28774;SDS011;15926;51.348;6.596;2023-05-16T14:31:20;2.33;;;0.82;;
28774;SDS011;15926;51.348;6.596;2023-05-16T14:33:46;2.60;;;1.50;;
28774;SDS011;15926;51.348;6.596;2023-05-16T14:36:12;1.60;;;1.00;;
28774;SDS011;15926;51.348;6.596;2023-05-16T14:38:38;2.53;;;0.98;;
28774;SDS011;15926;51.348;6.596;2023-05-16T14:41:04;2.92;;;1.00;;
28774;SDS011;15926;51.348;6.596;2023-05-16T14:43:30;3.05;;;1.15;;
28774;SDS011;15926;51.348;6.596;2023-05-16T14:45:56;1.02;;;0.70;;
28774;SDS011;15926;51.348;6.596;2023-05-16T14:48:22;1.27;;;0.82;;
28774;SDS011;15926;51.348;6.596;2023-05-16T14:50:48;1.60;;;1.10;;
28774;SDS011;15926;51.348;6.596;2023-05-16T14:53:15;4.35;;;0.73;;
28774;SDS011;15926;51.348;6.596;2023-05-16T14:55:41;1.85;;;0.90;;
28774;SDS011;15926;51.348;6.596;2023-05-16T14:58:08;5.85;;;1.20;;
28774;SDS011;15926;51.348;6.596;2023-05-16T15:00:34;1.20;;;0.70;;
28774;SDS011;15926;51.348;6.596;2023-05-16T15:03:00;4.03;;;0.90;;
28774;SDS011;15926;51.348;6.596;2023-05-16T15:05:29;3.38;;;0.77;;
28774;SDS011;15926;51.348;6.596;2023-05-16T15:07:55;6.70;;;0.80;;
28774;SDS011;15926;51.348;6.596;2023-05-16T15:10:22;2.40;;;0.90;;
28774;SDS011;15926;51.348;6.596;2023-05-16T15:12:48;2.45;;;1.10;;
28774;SDS011;15926;51.348;6.596;2023-05-16T15:15:14;1.70;;;0.63;;
28774;SDS011;15926;51.348;6.596;2023-05-16T15:17:40;3.92;;;0.95;;
28774;SDS011;15926;51.348;6.596;2023-05-16T15:20:07;2.25;;;1.23;;
28774;SDS011;15926;51.348;6.596;2023-05-16T15:22:34;4.68;;;1.45;;